Time;durP1;ratioP1;P1;durP2;ratioP2;P2;SDS_P1;SDS_P2;PMS_P1;PMS_P2;Temp;Humidity;BMP_temperature;BMP_pressure;BME280_temperature;BME280_humidity;BME280_pressure;Samples;Min_cycle;Max_cycle;Signal;HPM_P1;HPM_P2
2021/12/06 00:01:06;;;;;;;6.60;1.95;;;5.40;99.90;;;;;;5029308;28;20169;-75
2021/12/06 00:03:56;;;;;;;6.18;2.20;;;5.40;99.90;;;;;;5011093;28;20033;-75
2021/12/06 00:06:24;;;;;;;9.52;3.10;;;5.40;99.90;;;;;;5029323;28;20076;-75
2021/12/06 00:08:50;;;;;;;8.77;2.15;;;5.40;99.90;;;;;;5028526;28;20494;-75
2021/12/06 00:11:16;;;;;;;8.45;2.90;;;5.30;99.90;;;;;;5029611;28;20061;-75
2021/12/06 00:13:44;;;;;;;13.38;2.38;;;5.30;99.90;;;;;;5030029;28;20087;-75
2021/12/06 00:16:17;;;;;;;7.50;2.35;;;5.20;99.90;;;;;;5029062;28;20021;-75
2021/12/06 00:18:44;;;;;;;15.40;2.45;;;5.20;99.90;;;;;;5028911;28;20030;-75
2021/12/06 00:21:10;;;;;;;8.95;3.30;;;5.20;99.90;;;;;;5011237;28;20029;-75
2021/12/06 00:23:36;;;;;;;12.18;3.10;;;5.20;99.90;;;;;;5029065;28;20018;-75
2021/12/06 00:26:03;;;;;;;13.27;3.05;;;5.10;99.90;;;;;;5030439;28;20021;-75
2021/12/06 00:28:29;;;;;;;9.57;2.83;;;5.10;99.90;;;;;;5028819;28;20029;-75
2021/12/06 00:30:56;;;;;;;7.63;2.13;;;5.10;99.90;;;;;;5028795;28;20502;-75
2021/12/06 00:33:23;;;;;;;9.90;2.63;;;5.10;99.90;;;;;;5011027;28;20032;-75
2021/12/06 00:35:49;;;;;;;10.18;2.33;;;5.10;99.90;;;;;;5028734;28;20333;-75
2021/12/06 00:38:16;;;;;;;11.98;2.55;;;5.10;99.90;;;;;;5028580;28;20555;-75
2021/12/06 00:40:45;;;;;;;7.93;2.50;;;5.10;99.90;;;;;;5011873;28;20490;-75
2021/12/06 00:43:12;;;;;;;9.00;2.15;;;5.00;99.90;;;;;;5028152;28;20104;-75
2021/12/06 00:45:38;;;;;;;12.88;2.53;;;5.00;99.90;;;;;;5028227;28;20099;-75
2021/12/06 00:48:04;;;;;;;12.85;2.63;;;5.00;99.90;;;;;;5010761;28;20480;-75
2021/12/06 00:50:34;;;;;;;8.70;2.47;;;5.00;99.90;;;;;;5028064;28;20025;-75
2021/12/06 00:53:00;;;;;;;11.98;2.50;;;5.00;99.90;;;;;;5011738;28;20515;-75
2021/12/06 00:55:26;;;;;;;8.30;2.08;;;5.00;99.90;;;;;;5027870;28;20426;-75
2021/12/06 00:57:53;;;;;;;9.32;2.33;;;5.10;99.90;;;;;;5028204;28;20026;-75
2021/12/06 01:00:23;;;;;;;15.18;2.83;;;5.10;99.90;;;;;;5027999;28;20474;-75
2021/12/06 01:02:49;;;;;;;7.35;2.67;;;5.20;99.90;;;;;;5028451;28;20139;-75
2021/12/06 01:05:15;;;;;;;10.13;2.90;;;5.20;99.90;;;;;;5011158;28;20036;-75
2021/12/06 01:07:41;;;;;;;16.25;2.05;;;5.10;99.90;;;;;;5029031;28;20079;-75
2021/12/06 01:10:08;;;;;;;11.60;2.75;;;5.10;99.90;;;;;;5028144;28;20037;-75
2021/12/06 01:12:35;;;;;;;10.38;2.83;;;5.10;99.90;;;;;;5027941;28;20108;-75
2021/12/06 01:15:01;;;;;;;8.70;2.10;;;5.10;99.90;;;;;;5010230;28;20033;-75
2021/12/06 01:17:27;;;;;;;14.85;3.78;;;5.10;99.90;;;;;;5027964;28;20010;-75
2021/12/06 01:19:53;;;;;;;13.18;2.38;;;5.10;99.90;;;;;;5029726;28;20104;-75
2021/12/06 01:25:01;;;;;;;11.80;2.60;;;4.90;99.90;;;;;;5027297;28;20033;-75
2021/12/06 01:27:47;;;;;;;12.85;3.35;;;4.90;99.90;;;;;;5027669;28;20049;-74
2021/12/06 01:40:54;;;;;;;8.90;2.05;;;4.80;99.90;;;;;;5029205;28;20036;-74
2021/12/06 01:43:20;;;;;;;8.00;2.38;;;4.90;99.90;;;;;;5027321;28;20025;-75
2021/12/06 01:45:46;;;;;;;7.35;2.90;;;4.90;99.90;;;;;;5006586;28;20064;-75
2021/12/06 01:48:11;;;;;;;11.40;2.08;;;4.90;99.90;;;;;;5008152;28;20026;-75
2021/12/06 01:50:38;;;;;;;7.07;1.80;;;4.90;99.90;;;;;;5007908;28;20530;-75
2021/12/06 01:53:04;;;;;;;15.27;1.70;;;4.80;99.90;;;;;;5009545;28;20026;-75
2021/12/06 01:55:34;;;;;;;8.30;2.10;;;4.80;99.90;;;;;;5007229;28;20127;-76
2021/12/06 01:58:02;;;;;;;12.75;2.90;;;4.80;99.90;;;;;;5007835;28;20116;-75
2021/12/06 02:00:31;;;;;;;9.32;3.05;;;4.80;99.90;;;;;;5008032;28;20022;-75
2021/12/06 02:02:57;;;;;;;9.63;1.77;;;4.80;99.90;;;;;;5008033;28;20022;-75
2021/12/06 02:05:23;;;;;;;6.35;1.95;;;4.70;99.90;;;;;;5006606;28;20096;-76
2021/12/06 02:07:50;;;;;;;7.43;2.03;;;4.70;99.90;;;;;;5009338;28;20044;-76
2021/12/06 02:10:15;;;;;;;6.93;2.70;;;4.70;99.90;;;;;;5007426;28;20088;-75
2021/12/06 02:12:43;;;;;;;12.82;3.28;;;4.70;99.90;;;;;;5007378;28;20038;-76
2021/12/06 02:15:54;;;;;;;6.28;1.50;;;4.70;99.90;;;;;;5007457;28;20117;-76
2021/12/06 02:18:07;;;;;;;8.63;1.80;;;4.70;99.90;;;;;;5004707;28;20038;-75
2021/12/06 02:20:41;;;;;;;9.70;2.30;;;4.80;99.90;;;;;;5007189;28;20544;-75
2021/12/06 02:23:07;;;;;;;8.95;2.22;;;4.80;99.90;;;;;;5009302;28;20092;-75
2021/12/06 02:25:33;;;;;;;9.18;2.03;;;4.80;99.90;;;;;;5007149;28;20018;-76
2021/12/06 02:27:59;;;;;;;8.93;2.55;;;4.80;99.90;;;;;;5007594;28;20502;-75
2021/12/06 02:30:25;;;;;;;10.40;2.20;;;4.80;99.90;;;;;;5007300;28;20022;-75
2021/12/06 02:32:52;;;;;;;7.97;2.08;;;4.90;99.90;;;;;;5006923;28;20037;-75
2021/12/06 02:35:21;;;;;;;9.93;1.95;;;4.90;99.90;;;;;;5006368;28;20030;-75
2021/12/06 02:37:48;;;;;;;11.60;2.33;;;4.90;99.90;;;;;;5007138;28;20296;-75
2021/12/06 02:40:25;;;;;;;11.95;2.45;;;5.00;99.90;;;;;;5007084;28;20022;-75
2021/12/06 02:42:52;;;;;;;13.75;2.53;;;4.90;99.90;;;;;;5006928;28;20034;-75
2021/12/06 02:45:24;;;;;;;12.70;2.60;;;5.00;99.90;;;;;;5022152;28;20049;-75
2021/12/06 02:47:53;;;;;;;8.82;2.20;;;5.00;99.90;;;;;;5030425;28;20292;-75
2021/12/06 02:50:22;;;;;;;7.93;1.67;;;5.00;99.90;;;;;;5031281;28;20329;-75
2021/12/06 02:52:48;;;;;;;7.07;1.58;;;5.10;99.90;;;;;;5031976;28;20029;-74
2021/12/06 02:55:30;;;;;;;6.57;2.58;;;5.10;99.90;;;;;;5030350;28;20570;-75
2021/12/06 02:58:32;;;;;;;6.65;1.23;;;5.10;99.90;;;;;;5030126;28;20095;-75
2021/12/06 03:00:59;;;;;;;6.80;1.48;;;5.10;99.90;;;;;;5030207;28;20021;-75
2021/12/06 03:03:24;;;;;;;12.13;1.63;;;5.10;99.90;;;;;;5029851;28;20029;-75
2021/12/06 03:05:52;;;;;;;10.00;3.00;;;5.10;99.90;;;;;;5030415;28;20025;-75
2021/12/06 03:08:40;;;;;;;6.25;1.50;;;5.00;99.90;;;;;;5030469;28;20029;-75
2021/12/06 03:11:10;;;;;;;6.57;2.25;;;5.00;99.90;;;;;;5031844;28;20022;-75
2021/12/06 03:13:37;;;;;;;13.48;1.73;;;5.00;99.90;;;;;;5030902;28;20084;-75
2021/12/06 03:16:03;;;;;;;7.93;3.00;;;5.10;99.90;;;;;;5012141;28;20025;-75
2021/12/06 03:18:29;;;;;;;9.73;2.05;;;5.10;99.90;;;;;;5029888;28;20033;-75
2021/12/06 03:20:55;;;;;;;6.82;1.65;;;5.10;99.90;;;;;;5030177;28;20026;-75
2021/12/06 03:23:20;;;;;;;10.07;1.70;;;5.10;99.90;;;;;;5030562;28;20032;-75
2021/12/06 03:25:46;;;;;;;11.35;2.88;;;5.10;99.90;;;;;;5031642;28;20549;-75
2021/12/06 03:28:12;;;;;;;8.77;2.08;;;5.10;99.90;;;;;;5029980;28;20028;-75
2021/12/06 03:30:38;;;;;;;8.55;1.77;;;5.10;99.90;;;;;;5029573;28;20073;-75
2021/12/06 03:33:04;;;;;;;9.13;1.95;;;5.10;99.90;;;;;;5030135;28;20048;-75
2021/12/06 03:35:30;;;;;;;9.20;2.75;;;5.10;99.90;;;;;;5029643;28;20029;-75
2021/12/06 03:37:56;;;;;;;11.55;2.70;;;5.00;99.90;;;;;;5031026;28;20495;-75
2021/12/06 03:40:22;;;;;;;9.68;2.28;;;5.00;99.90;;;;;;5029662;28;20136;-75
2021/12/06 03:42:48;;;;;;;10.32;2.33;;;5.00;99.90;;;;;;5029243;28;20104;-75
2021/12/06 03:45:14;;;;;;;14.63;2.63;;;5.00;99.90;;;;;;5029202;28;20533;-75
2021/12/06 03:47:41;;;;;;;11.57;2.28;;;5.10;99.90;;;;;;5014367;28;20068;-75
2021/12/06 03:50:09;;;;;;;10.73;2.70;;;5.10;99.90;;;;;;5031667;28;20033;-75
2021/12/06 03:52:35;;;;;;;12.18;2.33;;;5.10;99.90;;;;;;5011020;28;20048;-75
2021/12/06 03:55:03;;;;;;;8.85;2.17;;;5.10;99.90;;;;;;5029441;28;20037;-75
2021/12/06 03:57:29;;;;;;;9.85;2.15;;;5.10;99.90;;;;;;5029077;28;20511;-75
2021/12/06 03:59:55;;;;;;;14.65;3.22;;;5.20;99.90;;;;;;5028996;28;20049;-75
2021/12/06 04:02:24;;;;;;;10.95;2.40;;;5.20;99.90;;;;;;5029595;28;20022;-75
2021/12/06 04:04:50;;;;;;;13.43;2.80;;;5.20;99.90;;;;;;5030328;28;20112;-75
2021/12/06 04:07:16;;;;;;;18.38;3.20;;;5.20;99.90;;;;;;5011264;28;20121;-75
2021/12/06 04:09:42;;;;;;;12.23;2.47;;;5.20;99.90;;;;;;5028897;28;20105;-74
2021/12/06 04:12:09;;;;;;;13.18;2.33;;;5.20;99.90;;;;;;5029279;28;20134;-75
2021/12/06 04:14:37;;;;;;;14.25;2.05;;;5.20;99.90;;;;;;5010892;28;20060;-74
2021/12/06 04:17:04;;;;;;;8.18;2.83;;;5.20;99.90;;;;;;5030902;28;20045;-75
2021/12/06 04:19:29;;;;;;;13.70;2.97;;;5.20;99.90;;;;;;5028677;28;20029;-74
2021/12/06 04:21:55;;;;;;;14.52;2.30;;;5.20;99.90;;;;;;5028902;28;20461;-75
2021/12/06 04:24:22;;;;;;;16.73;2.88;;;5.20;99.90;;;;;;5028640;28;20494;-75
2021/12/06 04:26:48;;;;;;;10.57;2.00;;;5.20;99.90;;;;;;5029012;28;20025;-75
2021/12/06 04:29:14;;;;;;;15.75;2.58;;;5.20;99.90;;;;;;5029114;28;20029;-75
2021/12/06 04:31:48;;;;;;;8.00;1.92;;;5.20;99.90;;;;;;5028427;28;20120;-74
2021/12/06 04:34:14;;;;;;;6.18;1.95;;;5.20;99.90;;;;;;5028235;28;20041;-75
2021/12/06 04:36:42;;;;;;;11.30;2.17;;;5.20;99.90;;;;;;5028591;28;20021;-74
2021/12/06 04:39:09;;;;;;;8.98;2.25;;;5.20;99.90;;;;;;5028743;28;20025;-75
2021/12/06 04:41:35;;;;;;;7.97;2.13;;;5.20;99.90;;;;;;5010862;28;20025;-75
2021/12/06 04:44:02;;;;;;;11.32;2.72;;;5.20;99.90;;;;;;5029204;28;20037;-75
2021/12/06 04:46:28;;;;;;;7.38;2.42;;;5.20;99.90;;;;;;5028239;28;20035;-75
2021/12/06 04:48:54;;;;;;;9.90;2.40;;;5.20;99.90;;;;;;5028430;28;20022;-75
2021/12/06 04:51:20;;;;;;;10.48;2.63;;;5.20;99.90;;;;;;5028310;28;20541;-75
2021/12/06 04:53:47;;;;;;;8.95;2.30;;;5.20;99.90;;;;;;5028705;28;20022;-75
2021/12/06 04:56:25;;;;;;;10.80;2.85;;;5.10;99.90;;;;;;5029395;28;20033;-75
2021/12/06 04:58:54;;;;;;;15.65;3.85;;;5.10;99.90;;;;;;5029583;28;20036;-75
2021/12/06 05:01:28;;;;;;;12.02;3.45;;;5.10;99.90;;;;;;5027736;28;20124;-76
2021/12/06 05:03:59;;;;;;;13.00;2.65;;;5.10;99.90;;;;;;5027608;28;20088;-74
2021/12/06 05:06:27;;;;;;;11.43;1.50;;;5.10;99.90;;;;;;5028152;28;20037;-75
2021/12/06 05:08:57;;;;;;;8.35;1.70;;;5.10;99.90;;;;;;5027260;28;20052;-75
2021/12/06 05:11:27;;;;;;;12.75;2.95;;;5.10;99.90;;;;;;5028334;28;20111;-75
2021/12/06 05:13:54;;;;;;;7.40;1.55;;;5.10;99.90;;;;;;5027125;28;20033;-75
2021/12/06 05:16:21;;;;;;;15.50;2.63;;;5.20;99.90;;;;;;5009955;28;20040;-75
2021/12/06 05:18:47;;;;;;;11.60;2.97;;;5.20;99.90;;;;;;5010127;28;20501;-75
2021/12/06 05:21:13;;;;;;;10.85;2.17;;;5.20;99.90;;;;;;5027654;28;20018;-75
2021/12/06 05:23:39;;;;;;;10.77;3.08;;;5.20;99.90;;;;;;5010398;28;20521;-74
2021/12/06 05:26:05;;;;;;;8.35;2.38;;;5.20;99.90;;;;;;5029816;28;20491;-75
2021/12/06 05:28:34;;;;;;;11.63;2.85;;;5.20;99.90;;;;;;5027528;28;20025;-75
2021/12/06 05:31:00;;;;;;;12.63;2.15;;;5.30;99.90;;;;;;5027672;28;20037;-75
2021/12/06 05:33:30;;;;;;;6.60;1.77;;;5.30;99.90;;;;;;5027450;28;20021;-75
2021/12/06 05:36:02;;;;;;;15.55;2.33;;;5.30;99.90;;;;;;5027767;28;20026;-76
2021/12/06 05:38:29;;;;;;;19.52;2.72;;;5.20;99.90;;;;;;5026923;28;20024;-75
2021/12/06 05:40:55;;;;;;;11.10;2.42;;;5.20;99.90;;;;;;5029019;28;20076;-75
2021/12/06 05:43:21;;;;;;;10.73;2.70;;;5.10;99.90;;;;;;5027386;28;20094;-75
2021/12/06 05:45:49;;;;;;;11.10;2.75;;;5.10;99.90;;;;;;5027317;28;20052;-75
2021/12/06 05:48:15;;;;;;;11.93;2.35;;;5.10;99.90;;;;;;5009983;28;20118;-76
2021/12/06 05:50:40;;;;;;;10.30;2.50;;;5.10;99.90;;;;;;5027832;28;20487;-75
2021/12/06 05:53:06;;;;;;;12.52;2.75;;;5.10;99.90;;;;;;5010981;28;20029;-75
2021/12/06 05:55:32;;;;;;;12.98;2.85;;;5.10;99.90;;;;;;5026840;28;20037;-75
2021/12/06 05:58:00;;;;;;;12.57;2.97;;;5.10;99.90;;;;;;5009062;28;20503;-75
2021/12/06 06:00:30;;;;;;;13.55;2.83;;;5.20;99.90;;;;;;5009188;28;20109;-76
2021/12/06 06:02:57;;;;;;;17.45;3.50;;;5.20;99.90;;;;;;5009499;28;20024;-75
2021/12/06 06:05:23;;;;;;;12.75;2.70;;;5.20;99.90;;;;;;5027269;28;20021;-75
2021/12/06 06:07:49;;;;;;;10.32;3.15;;;5.20;99.90;;;;;;5028155;28;20372;-76
2021/12/06 06:10:15;;;;;;;11.15;4.18;;;5.20;99.90;;;;;;5026542;28;20033;-76
2021/12/06 06:12:42;;;;;;;11.40;3.35;;;5.20;99.90;;;;;;5027302;28;20025;-74
2021/12/06 06:15:08;;;;;;;12.77;2.90;;;5.20;99.90;;;;;;5009269;28;20037;-74
2021/12/06 06:17:40;;;;;;;9.30;2.78;;;5.20;99.90;;;;;;5027558;28;20387;-74
2021/12/06 06:20:13;;;;;;;6.78;2.40;;;5.30;99.90;;;;;;5013810;28;20469;-74
2021/12/06 06:22:38;;;;;;;13.65;2.92;;;5.30;99.90;;;;;;5014098;28;20075;-74
2021/12/06 06:25:05;;;;;;;11.18;2.92;;;5.30;99.90;;;;;;5030860;28;20030;-74
2021/12/06 06:27:30;;;;;;;9.35;2.58;;;5.30;99.90;;;;;;5030953;28;20025;-74
2021/12/06 06:29:56;;;;;;;11.82;3.20;;;5.30;99.90;;;;;;5030509;28;20084;-74
2021/12/06 06:32:21;;;;;;;8.18;2.55;;;5.30;99.90;;;;;;5031076;28;20100;-74
2021/12/06 06:34:47;;;;;;;10.27;2.28;;;5.30;99.90;;;;;;5031796;28;20487;-74
2021/12/06 06:37:13;;;;;;;11.95;2.75;;;5.30;99.90;;;;;;5029269;28;20509;-76
2021/12/06 06:39:38;;;;;;;12.38;3.20;;;5.30;99.90;;;;;;5011758;28;20036;-75
2021/12/06 06:42:04;;;;;;;13.75;2.42;;;5.30;99.90;;;;;;5031097;28;20022;-75
2021/12/06 06:44:30;;;;;;;8.50;2.33;;;5.30;99.90;;;;;;5030608;28;20053;-75
2021/12/06 06:46:56;;;;;;;9.85;2.72;;;5.40;99.90;;;;;;5032552;28;20036;-76
2021/12/06 06:49:22;;;;;;;6.97;2.42;;;5.40;99.90;;;;;;5030585;28;20026;-75
2021/12/06 06:51:47;;;;;;;15.10;3.17;;;5.40;99.90;;;;;;5030921;28;20599;-74
2021/12/06 06:54:14;;;;;;;19.42;4.47;;;5.40;99.90;;;;;;5030415;28;20076;-75
2021/12/06 06:56:40;;;;;;;8.48;3.10;;;5.40;99.90;;;;;;5031403;28;20075;-75
2021/12/06 06:59:06;;;;;;;11.63;3.22;;;5.40;99.90;;;;;;5032454;28;20022;-75
2021/12/06 07:01:33;;;;;;;13.23;3.88;;;5.40;99.90;;;;;;5030306;28;20048;-75
2021/12/06 07:03:59;;;;;;;14.27;2.72;;;5.40;99.90;;;;;;5012662;28;20566;-75
2021/12/06 07:06:26;;;;;;;10.43;2.88;;;5.40;99.90;;;;;;5030315;28;20089;-75
2021/12/06 07:08:54;;;;;;;9.55;3.10;;;5.40;99.90;;;;;;5029854;28;20338;-75
2021/12/06 07:11:21;;;;;;;11.20;3.45;;;5.40;99.90;;;;;;5030963;28;20017;-75
2021/12/06 07:13:47;;;;;;;10.32;2.67;;;5.40;99.90;;;;;;5030860;28;20056;-74
2021/12/06 07:16:15;;;;;;;10.80;3.38;;;5.40;99.90;;;;;;5012494;28;20025;-75
2021/12/06 07:18:41;;;;;;;10.40;2.63;;;5.40;99.90;;;;;;5030427;28;20047;-75
2021/12/06 07:21:07;;;;;;;9.50;2.13;;;5.40;99.90;;;;;;5030612;28;20010;-74
2021/12/06 07:23:38;;;;;;;7.38;2.80;;;5.50;99.90;;;;;;5030124;28;20029;-74
2021/12/06 07:26:08;;;;;;;16.23;2.63;;;5.40;99.90;;;;;;5027656;28;20038;-74
2021/12/06 07:28:34;;;;;;;6.97;2.17;;;5.40;99.90;;;;;;5025847;28;20041;-75
2021/12/06 07:31:01;;;;;;;6.25;1.52;;;5.40;99.90;;;;;;5024975;28;20410;-75
2021/12/06 07:33:27;;;;;;;11.70;2.80;;;5.50;99.90;;;;;;5025227;28;20099;-74
2021/12/06 07:35:53;;;;;;;8.48;2.47;;;5.40;99.90;;;;;;5025728;28;20021;-74
2021/12/06 07:38:19;;;;;;;13.50;2.55;;;5.50;99.90;;;;;;5022616;28;20028;-75
2021/12/06 07:40:44;;;;;;;7.88;2.50;;;5.50;99.90;;;;;;5028550;28;20017;-74
2021/12/06 07:43:10;;;;;;;10.45;2.00;;;5.60;99.90;;;;;;5024766;28;20113;-74
2021/12/06 07:45:36;;;;;;;7.93;2.70;;;5.50;99.90;;;;;;5022263;28;20434;-74
2021/12/06 07:48:02;;;;;;;11.30;2.85;;;5.60;99.90;;;;;;5022789;28;20040;-75
2021/12/06 07:50:28;;;;;;;8.20;3.22;;;5.60;99.90;;;;;;5021499;28;20018;-74
2021/12/06 07:52:54;;;;;;;16.73;4.30;;;5.60;99.90;;;;;;5023350;28;20492;-74
2021/12/06 07:55:22;;;;;;;13.30;4.28;;;5.60;99.90;;;;;;5009118;28;20527;-74
2021/12/06 07:57:49;;;;;;;19.35;4.70;;;5.70;99.90;;;;;;5028997;28;20030;-74
2021/12/06 08:00:21;;;;;;;11.82;4.18;;;5.60;99.90;;;;;;5030174;28;20051;-75
2021/12/06 08:02:47;;;;;;;13.82;4.25;;;5.70;99.90;;;;;;5013940;28;20032;-74
2021/12/06 08:05:32;;;;;;;13.00;3.83;;;5.70;99.90;;;;;;5030857;28;20076;-74
2021/12/06 08:08:34;;;;;;;9.13;3.50;;;5.70;99.90;;;;;;5020620;28;20030;-74
2021/12/06 08:11:08;;;;;;;11.32;3.95;;;5.80;99.90;;;;;;5021025;28;20056;-74
2021/12/06 08:13:38;;;;;;;11.45;2.72;;;5.80;99.90;;;;;;5030399;28;20037;-74
2021/12/06 08:16:16;;;;;;;12.63;2.80;;;5.80;99.90;;;;;;5029499;28;20026;-74
2021/12/06 08:18:44;;;;;;;9.18;2.92;;;5.80;99.90;;;;;;5024105;28;20033;-74
2021/12/06 08:21:11;;;;;;;7.07;2.83;;;5.80;99.90;;;;;;5012026;28;20021;-74
2021/12/06 08:23:37;;;;;;;11.25;3.42;;;5.80;99.90;;;;;;5011591;28;20114;-74
2021/12/06 08:26:05;;;;;;;6.38;2.70;;;5.90;99.90;;;;;;5030644;28;20100;-74
2021/12/06 08:28:34;;;;;;;7.93;2.50;;;5.90;99.90;;;;;;5008410;28;20034;-74
2021/12/06 08:30:59;;;;;;;18.38;2.75;;;5.90;99.90;;;;;;5024233;28;20028;-74
2021/12/06 08:33:26;;;;;;;8.68;2.70;;;5.90;99.90;;;;;;5028265;28;20021;-74
2021/12/06 08:35:53;;;;;;;13.77;3.00;;;5.90;99.90;;;;;;5010024;28;20057;-74
2021/12/06 08:38:24;;;;;;;11.82;3.13;;;5.90;99.90;;;;;;5029983;28;20028;-74
2021/12/06 08:40:51;;;;;;;;;;;6.00;99.90;;;;;;5029752;28;20026;-75
2021/12/06 08:43:19;;;;;;;8.27;2.50;;;6.00;99.90;;;;;;5028179;28;19909;-74
2021/12/06 08:46:07;;;;;;;13.73;2.10;;;6.00;99.90;;;;;;5006840;28;20112;-74
2021/12/06 08:48:35;;;;;;;11.32;2.45;;;6.00;99.90;;;;;;5003947;28;20042;-75
2021/12/06 08:51:06;;;;;;;9.52;2.28;;;6.00;99.90;;;;;;5008680;28;20026;-74
2021/12/06 08:53:32;;;;;;;7.32;1.70;;;6.10;99.90;;;;;;5008662;28;20048;-75
2021/12/06 08:55:58;;;;;;;9.48;2.28;;;6.10;99.90;;;;;;5006859;28;20026;-75
2021/12/06 08:58:25;;;;;;;12.93;2.60;;;6.10;99.90;;;;;;5007918;28;20026;-75
2021/12/06 09:00:51;;;;;;;7.50;2.15;;;6.10;99.90;;;;;;5007891;28;20048;-75
2021/12/06 09:03:16;;;;;;;9.02;1.80;;;6.20;99.90;;;;;;5007010;28;20018;-74
2021/12/06 09:05:46;;;;;;;10.52;1.95;;;6.20;99.90;;;;;;5008197;28;20033;-74
2021/12/06 09:08:12;;;;;;;9.57;2.20;;;6.20;99.90;;;;;;5008340;28;20037;-75
2021/12/06 09:10:37;;;;;;;6.78;1.80;;;6.30;99.90;;;;;;5008569;28;20042;-75
2021/12/06 09:13:05;;;;;;;9.90;2.70;;;6.30;99.90;;;;;;5007428;28;20116;-75
2021/12/06 09:15:32;;;;;;;8.63;2.53;;;6.40;99.90;;;;;;5007106;28;20121;-75
2021/12/06 09:17:58;;;;;;;8.52;1.75;;;6.40;99.90;;;;;;5008320;28;20018;-75
2021/12/06 09:20:30;;;;;;;16.20;2.30;;;6.40;99.90;;;;;;5007638;28;20022;-75
2021/12/06 09:22:57;;;;;;;10.45;2.28;;;6.40;99.90;;;;;;5009371;28;20046;-74
2021/12/06 09:25:23;;;;;;;11.20;2.47;;;6.50;99.90;;;;;;5008566;28;20029;-74
2021/12/06 09:27:49;;;;;;;8.70;2.70;;;6.50;99.90;;;;;;4998525;28;20034;-74
2021/12/06 09:30:20;;;;;;;14.63;1.92;;;6.60;99.90;;;;;;5003573;28;20042;-75
2021/12/06 09:32:46;;;;;;;17.30;3.67;;;6.70;99.90;;;;;;4993066;28;20030;-74
2021/12/06 09:35:19;;;;;;;7.88;2.05;;;6.70;99.90;;;;;;5003028;28;20030;-75
2021/12/06 09:37:45;;;;;;;10.90;2.38;;;6.80;99.90;;;;;;4990206;28;20030;-75
2021/12/06 09:40:11;;;;;;;11.23;2.50;;;7.00;99.90;;;;;;4997425;28;20041;-75
2021/12/06 09:42:37;;;;;;;9.40;2.67;;;7.20;99.90;;;;;;5000733;28;20049;-75
2021/12/06 09:45:10;;;;;;;10.05;2.15;;;7.40;99.90;;;;;;5021040;28;20077;-75
2021/12/06 09:47:36;;;;;;;9.60;1.92;;;7.50;99.90;;;;;;5010486;28;20278;-75
2021/12/06 09:50:03;;;;;;;5.45;1.73;;;7.60;99.90;;;;;;5014678;28;20423;-75
2021/12/06 09:52:29;;;;;;;12.68;2.65;;;7.80;99.90;;;;;;5024684;28;20029;-75
2021/12/06 09:54:55;;;;;;;4.55;1.88;;;7.70;99.90;;;;;;5022626;28;20029;-75
2021/12/06 09:57:21;;;;;;;6.75;2.08;;;7.60;99.90;;;;;;5025116;28;20021;-75
2021/12/06 09:59:47;;;;;;;5.35;1.67;;;7.60;99.90;;;;;;5025903;28;26563;-74
2021/12/06 10:02:18;;;;;;;11.45;3.25;;;7.70;99.90;;;;;;5028820;28;20411;-75
2021/12/06 10:04:50;;;;;;;7.47;2.13;;;7.90;99.90;;;;;;5007119;28;20504;-75
2021/12/06 10:07:18;;;;;;;12.07;2.20;;;8.10;99.90;;;;;;5023799;28;20037;-75
2021/12/06 10:09:44;;;;;;;11.25;1.90;;;8.20;99.90;;;;;;5005572;28;20041;-75
2021/12/06 10:12:12;;;;;;;8.88;2.00;;;8.20;99.90;;;;;;5015963;28;20028;-75
2021/12/06 10:14:38;;;;;;;7.32;2.15;;;8.30;99.90;;;;;;5027030;28;20036;-75
2021/12/06 10:17:05;;;;;;;6.70;2.00;;;8.50;99.90;;;;;;5028315;28;20517;-75
2021/12/06 10:19:32;;;;;;;10.57;2.42;;;8.70;99.90;;;;;;5008740;28;20033;-75
2021/12/06 10:21:58;;;;;;;10.63;2.70;;;8.70;99.90;;;;;;5022742;28;20029;-75
2021/12/06 10:24:28;;;;;;;6.75;1.83;;;8.50;99.90;;;;;;5025768;28;20030;-75
2021/12/06 10:27:06;;;;;;;8.63;2.28;;;8.50;99.90;;;;;;5027030;28;20041;-75
2021/12/06 10:29:47;;;;;;;10.38;2.90;;;8.60;99.90;;;;;;5026850;28;20038;-75
2021/12/06 10:32:22;;;;;;;8.88;3.50;;;8.30;99.90;;;;;;5024222;28;20037;-75
2021/12/06 10:34:52;;;;;;;6.53;2.45;;;8.20;99.90;;;;;;5027288;28;20029;-75
2021/12/06 10:37:42;;;;;;;7.65;2.53;;;8.20;99.90;;;;;;5024950;28;20029;-75
2021/12/06 10:40:11;;;;;;;5.68;2.03;;;8.10;99.90;;;;;;5008941;28;20055;-75
2021/12/06 10:42:42;;;;;;;9.38;1.92;;;8.30;99.90;;;;;;5022501;28;20099;-75
2021/12/06 10:45:16;;;;;;;15.57;3.13;;;8.40;99.90;;;;;;5023940;28;20050;-75
2021/12/06 10:47:42;;;;;;;10.80;2.33;;;8.40;99.90;;;;;;5011371;28;20033;-75
2021/12/06 10:50:17;;;;;;;11.43;3.15;;;8.50;99.90;;;;;;5028401;28;20060;-75
2021/12/06 10:52:55;;;;;;;13.32;2.22;;;8.50;99.90;;;;;;5023723;28;20507;-75
2021/12/06 10:55:23;;;;;;;11.20;2.58;;;8.70;99.90;;;;;;5027446;28;20127;-75
2021/12/06 10:58:00;;;;;;;11.18;3.15;;;8.70;99.90;;;;;;5008609;28;20029;-76
2021/12/06 11:00:54;;;;;;;19.73;3.83;;;8.80;99.90;;;;;;5026967;28;20017;-75
2021/12/06 11:03:45;;;;;;;15.10;4.10;;;8.80;99.90;;;;;;5002615;28;20155;-76
2021/12/06 11:06:15;;;;;;;10.82;2.25;;;8.60;99.90;;;;;;5026431;28;20090;-75
2021/12/06 11:08:42;;;;;;;7.33;2.27;;;8.50;99.90;;;;;;5029376;28;20029;-75
2021/12/06 11:11:28;;;;;;;5.20;2.05;;;8.50;99.90;;;;;;5027581;28;20166;-76
2021/12/06 11:14:00;;;;;;;8.10;2.08;;;8.50;99.90;;;;;;5029457;28;20037;-76
2021/12/06 11:16:29;;;;;;;7.78;1.40;;;8.50;99.90;;;;;;5025805;28;20037;-76
2021/12/06 11:18:57;;;;;;;7.38;1.73;;;8.50;99.90;;;;;;5029364;28;20033;-76
2021/12/06 11:21:33;;;;;;;5.45;2.10;;;8.60;99.90;;;;;;5030272;28;20022;-76
2021/12/06 11:24:19;;;;;;;5.35;2.15;;;8.60;99.90;;;;;;5028836;28;20037;-76
2021/12/06 11:27:10;;;;;;;9.40;2.80;;;8.70;99.90;;;;;;5014020;28;20106;-76
2021/12/06 11:29:45;;;;;;;6.88;1.52;;;8.70;99.90;;;;;;5027772;28;20033;-75
2021/12/06 11:32:10;;;;;;;10.73;2.33;;;8.70;99.90;;;;;;5027546;28;20022;-76
2021/12/06 11:34:42;;;;;;;7.15;1.95;;;8.80;99.90;;;;;;5011506;28;20087;-75
2021/12/06 11:37:14;;;;;;;11.82;2.60;;;8.80;99.90;;;;;;5023664;28;20022;-76
2021/12/06 11:39:40;;;;;;;8.35;2.58;;;8.80;99.90;;;;;;5022200;28;20030;-76
2021/12/06 11:42:06;;;;;;;8.85;2.30;;;8.80;99.90;;;;;;5029194;28;20049;-76
2021/12/06 11:44:35;;;;;;;7.97;2.85;;;8.90;99.90;;;;;;5028631;28;20088;-76
2021/12/06 11:47:14;;;;;;;9.68;2.20;;;8.90;99.90;;;;;;5027328;28;20104;-76
2021/12/06 11:49:56;;;;;;;10.32;3.03;;;9.00;99.90;;;;;;5028205;28;20025;-76
2021/12/06 11:52:32;;;;;;;17.80;2.95;;;9.30;99.90;;;;;;5027277;28;20034;-75
2021/12/06 11:55:11;;;;;;;6.95;2.30;;;9.50;99.90;;;;;;5027691;28;20033;-75
2021/12/06 11:57:44;;;;;;;10.35;2.83;;;9.50;99.90;;;;;;5007171;28;20021;-75
2021/12/06 12:00:12;;;;;;;8.15;2.13;;;9.50;99.90;;;;;;5029831;28;20022;-75
2021/12/06 12:02:54;;;;;;;9.45;2.40;;;9.40;99.90;;;;;;5030623;28;20101;-75
2021/12/06 12:05:31;;;;;;;9.77;2.80;;;9.20;99.90;;;;;;5026144;28;20037;-75
2021/12/06 12:07:56;;;;;;;7.40;2.13;;;9.30;99.90;;;;;;5015958;28;20030;-75
2021/12/06 12:10:45;;;;;;;13.23;3.03;;;9.20;99.90;;;;;;5028084;28;20517;-76
2021/12/06 12:13:24;;;;;;;8.23;2.58;;;9.20;99.90;;;;;;5024333;28;20045;-76
2021/12/06 12:15:52;;;;;;;9.25;2.17;;;9.10;99.90;;;;;;5030158;28;20029;-76
2021/12/06 12:18:18;;;;;;;8.55;2.15;;;9.20;99.90;;;;;;5024995;28;20057;-76
2021/12/06 12:20:44;;;;;;;7.05;2.53;;;9.20;99.90;;;;;;5029373;28;20435;-76
2021/12/06 12:23:13;;;;;;;13.25;2.88;;;9.30;99.90;;;;;;5027207;28;20792;-76
2021/12/06 12:25:49;;;;;;;10.05;2.67;;;9.40;99.90;;;;;;5028155;28;20030;-76
2021/12/06 12:28:22;;;;;;;7.75;1.73;;;9.50;99.90;;;;;;5027385;28;20060;-76
2021/12/06 12:30:52;;;;;;;7.95;2.42;;;9.60;99.90;;;;;;5024033;28;20208;-76
2021/12/06 12:33:19;;;;;;;8.35;2.05;;;9.60;99.90;;;;;;5027408;28;20063;-76
2021/12/06 12:35:51;;;;;;;9.50;2.15;;;9.50;99.90;;;;;;5009480;28;20040;-76
2021/12/06 12:38:25;;;;;;;6.95;2.95;;;9.50;99.90;;;;;;5009820;28;20022;-76
2021/12/06 12:40:59;;;;;;;9.30;2.55;;;9.60;99.90;;;;;;5028922;28;20036;-76
2021/12/06 12:43:41;;;;;;;8.90;2.10;;;9.80;99.90;;;;;;5027260;28;20029;-76
2021/12/06 12:46:13;;;;;;;6.50;1.88;;;9.80;99.90;;;;;;5027041;28;20045;-76
2021/12/06 12:48:47;;;;;;;8.18;1.90;;;9.60;99.90;;;;;;5027495;28;20056;-76
2021/12/06 12:51:18;;;;;;;8.90;2.15;;;9.70;99.90;;;;;;5027335;28;20040;-76
2021/12/06 12:53:44;;;;;;;;;;;9.80;99.90;;;;;;5027290;28;20040;-75
2021/12/06 12:56:24;;;;;;;10.02;2.20;;;9.70;99.90;;;;;;5010795;28;19913;-75
2021/12/06 12:58:51;;;;;;;8.50;2.25;;;9.60;99.90;;;;;;5015547;28;20034;-75
2021/12/06 13:01:19;;;;;;;8.85;2.15;;;9.50;99.90;;;;;;5024539;28;20033;-76
2021/12/06 13:03:54;;;;;;;7.85;1.60;;;9.60;99.90;;;;;;5027589;28;20061;-76
2021/12/06 13:06:35;;;;;;;16.15;1.75;;;9.50;99.90;;;;;;5027474;28;20067;-75
2021/12/06 13:09:03;;;;;;;10.00;2.50;;;9.60;99.90;;;;;;5027228;28;20033;-75
2021/12/06 13:11:39;;;;;;;10.85;2.50;;;9.60;99.90;;;;;;5027039;28;20076;-75
2021/12/06 13:14:05;;;;;;;9.85;3.67;;;9.60;99.90;;;;;;5029034;28;20029;-76
2021/12/06 13:16:49;;;;;;;10.45;2.25;;;9.50;99.90;;;;;;5027110;28;20044;-76